Nearby METAR Reports

 

LEVT - Vitoria, Spain
Distance from station: O 10km
Actualización: 28/05/2024 12:00
Despejado
Despejado
 Viento del NE
Viento: NE 4 km/h
Temperatura: 16°C
Rocío: 8°C
Humedad: 59%
Barómetro: 1023 hPa
Resumen: Despejado
Visibility: greater than 10 km
2024/05/28 10:00 LEVT 281000Z 05002KT CAVOK 16/08 Q1023
LELO - Logrono/Agoncill, Spain
Distance from station: SSE 51km
Actualización: 28/05/2024 12:00
Despejado
Despejado
 Viento del O
Viento: O 17 km/h
Temperatura: 19°C
Rocío: 6°C
Humedad: 43%
Barómetro: 1022 hPa
Resumen: Despejado
Visibility: greater than 10 km
2024/05/28 10:00 LELO 281000Z 26009KT CAVOK 19/06 Q1022
LEBB - Bilbao/Sondica, Spain
Distance from station: NNO 54km
Actualización: 28/05/2024 12:00
Despejado
Despejado
 Viento del varies
Viento: varies 4 km/h
Temperatura: 20°C
Rocío: 10°C
Humedad: 53%
Barómetro: 1023 hPa
Resumen: Despejado
Visibility: greater than 10 km
2024/05/28 10:00 LEBB 281000Z VRB02KT CAVOK 20/10 Q1023 NOSIG
 
LEPP - Pamplona/Noain, Spain
Distance from station: E 78km
Actualización: 28/05/2024 12:00
Despejado
Despejado
 Viento del NO
Viento: NO 4 km/h
Temperatura: 18°C
Rocío: 9°C
Humedad: 56%
Barómetro: 1022 hPa
Resumen: Despejado
Visibility: greater than 10 km
2024/05/28 10:00 LEPP 281000Z 32002KT CAVOK 18/09 Q1022
LESO - San Sebastian/Fu, Spain
Distance from station: NE 85km
Actualización: 28/05/2024 12:00
Few Clouds
Few Clouds
 Viento del NNE
Viento: NNE 9 km/h
Temperatura: 18°C
Rocío: 11°C
Humedad: 64%
Barómetro: 1023 hPa
Clouds: Few Clouds
Visibility: 10 km
Cloud details: Few Clouds 853 m
2024/05/28 10:00 LESO 281000Z 02005KT 330V060 9999 FEW028 18/11 Q1023
LEBG - Burgos/Villafria, Spain
Distance from station: SO 100km
Actualización: 28/05/2024 12:00
Despejado
Despejado
 Viento del NE
Viento: NE 15 km/h
Temperatura: 18°C
Rocío: 7°C
Humedad: 49%
Barómetro: 1023 hPa
Resumen: Despejado
Visibility: greater than 10 km
2024/05/28 10:00 LEBG 281000Z 04008KT 360V110 CAVOK 18/07 Q1023
 
LFBZ - Biarritz/Anglet, France
Distance from station: NE 111km
Actualización: 28/05/2024 12:00
Few Clouds
Few Clouds
 Viento del varies
Viento: varies 6 km/h
Temperatura: 19°C
Rocío: 11°C
Humedad: 60%
Barómetro: 1023 hPa
Clouds: Few Clouds
Visibility: 10 km
Cloud details: Few Clouds 975 m
2024/05/28 10:00 LFBZ 281000Z AUTO VRB03KT 9999 FEW032/// 19/11 Q1023 NOSIG
LEXJ - Santander/Paraya, Spain
Distance from station: ONO 117km
Actualización: 28/05/2024 12:00
Despejado
Despejado
 Viento del NE
Viento: NE 7 km/h
Temperatura: 18°C
Rocío: 13°C
Humedad: 73%
Barómetro: 1022 hPa
Resumen: Despejado
Visibility: greater than 10 km
2024/05/28 10:00 LEXJ 281000Z 04004KT 330V140 CAVOK 18/13 Q1022